Time;durP1;ratioP1;P1;durP2;ratioP2;P2;SDS_P1;SDS_P2;PMS_P1;PMS_P2;Temp;Humidity;BMP_temperature;BMP_pressure;BME280_temperature;BME280_humidity;BME280_pressure;Samples;Min_cycle;Max_cycle;Signal;HPM_P1;HPM_P2
2023/03/06 00:01:34;;;;;;;24.80;19.23;;;2.20;99.90;;;3.01;88.77;97169.94;5239592;28;20235;-62
2023/03/06 00:04:08;;;;;;;25.13;19.27;;;2.20;99.90;;;3.02;88.75;97176.72;5244876;28;20253;-62
2023/03/06 00:06:43;;;;;;;24.83;19.30;;;2.20;99.90;;;3.04;89.37;97165.13;5246453;28;20200;-63
2023/03/06 00:09:16;;;;;;;26.33;19.17;;;2.30;99.90;;;3.04;89.38;97174.34;5245818;28;20226;-62
2023/03/06 00:11:49;;;;;;;24.83;19.10;;;2.20;99.90;;;3.01;88.74;97164.88;5232012;28;20634;-63
2023/03/06 00:14:22;;;;;;;25.07;19.90;;;2.20;99.90;;;3.00;89.69;97158.06;5240251;28;20208;-62
2023/03/06 00:16:55;;;;;;;24.40;18.90;;;2.20;99.90;;;3.04;88.54;97160.06;5239736;28;20200;-63
2023/03/06 00:19:28;;;;;;;25.50;19.67;;;2.20;99.90;;;3.02;89.12;97154.00;5235503;28;20210;-61
2023/03/06 00:22:03;;;;;;;25.20;19.43;;;2.20;99.90;;;2.98;89.16;97148.66;5231428;28;20296;-61
2023/03/06 00:24:36;;;;;;;26.30;18.87;;;2.10;99.90;;;3.00;89.12;97142.91;5242362;28;20317;-62
2023/03/06 00:27:09;;;;;;;26.67;19.73;;;2.10;99.90;;;2.95;89.34;97139.19;5235973;28;20230;-62
2023/03/06 00:29:43;;;;;;;26.10;18.77;;;2.10;99.90;;;2.96;88.99;97140.06;5232766;28;20212;-62
2023/03/06 00:32:16;;;;;;;23.73;18.13;;;2.10;99.90;;;2.85;88.39;97137.63;5244909;28;20291;-62
2023/03/06 00:34:49;;;;;;;23.57;17.70;;;2.00;99.90;;;2.84;89.13;97143.44;5238282;28;20721;-62
2023/03/06 00:37:25;;;;;;;24.33;17.67;;;2.00;99.90;;;2.87;89.34;97140.25;5235637;28;20320;-62
2023/03/06 00:39:58;;;;;;;24.63;18.77;;;2.00;99.90;;;2.85;88.67;97141.78;5231850;28;20563;-63
2023/03/06 00:42:31;;;;;;;25.10;17.93;;;2.00;99.90;;;2.82;89.66;97136.50;5233587;28;20235;-62
2023/03/06 00:45:05;;;;;;;24.10;17.83;;;2.00;99.90;;;2.80;90.05;97135.50;5238925;28;20220;-60
2023/03/06 00:47:39;;;;;;;23.00;17.83;;;1.90;99.90;;;2.80;89.35;97133.00;5236558;28;20220;-63
2023/03/06 00:50:12;;;;;;;24.43;18.23;;;1.90;99.90;;;2.78;89.77;97129.50;5230725;28;20200;-62
2023/03/06 00:52:46;;;;;;;23.93;17.97;;;1.90;99.90;;;2.78;89.79;97124.44;5241805;28;20716;-63
2023/03/06 00:55:19;;;;;;;21.53;17.40;;;1.90;99.90;;;2.76;89.46;97120.91;5239688;28;20286;-61
2023/03/06 00:57:52;;;;;;;25.33;17.93;;;1.90;99.90;;;2.70;90.52;97114.66;5239408;28;20330;-63
2023/03/06 01:00:25;;;;;;;26.23;17.13;;;1.90;99.90;;;2.71;90.41;97107.94;5245997;28;20288;-62
2023/03/06 01:02:58;;;;;;;23.40;16.93;;;1.90;99.90;;;2.76;89.97;97111.69;5236255;28;20212;-62
2023/03/06 01:05:35;;;;;;;23.37;17.53;;;1.90;99.90;;;2.80;89.83;97102.72;5233740;28;20241;-60
2023/03/06 01:08:10;;;;;;;24.93;17.70;;;2.00;99.90;;;2.84;90.45;97105.59;5231066;28;23159;-62
2023/03/06 01:10:43;;;;;;;23.63;17.60;;;1.90;99.90;;;2.78;89.97;97105.13;5232910;28;20571;-62
2023/03/06 01:13:16;;;;;;;24.87;18.00;;;2.00;99.90;;;2.70;89.80;97094.47;5233091;28;20577;-62
2023/03/06 01:15:49;;;;;;;24.90;18.07;;;1.90;99.90;;;2.65;90.37;97097.41;5234489;28;20206;-62
2023/03/06 01:18:22;;;;;;;23.70;17.93;;;1.80;99.90;;;2.63;90.41;97088.84;5235721;28;20244;-64
2023/03/06 01:20:55;;;;;;;25.43;18.80;;;1.90;99.90;;;2.69;90.23;97087.66;5239577;28;20295;-62
2023/03/06 01:23:30;;;;;;;23.83;18.40;;;1.90;99.90;;;2.64;90.35;97081.41;5245009;28;20225;-62
2023/03/06 01:26:04;;;;;;;25.70;19.00;;;1.90;99.90;;;2.64;89.96;97081.41;5245989;28;20253;-63
2023/03/06 01:28:38;;;;;;;24.00;17.80;;;1.90;99.90;;;2.65;90.53;97073.06;5235304;28;20228;-63
2023/03/06 01:31:11;;;;;;;24.90;18.27;;;1.90;99.90;;;2.71;89.81;97072.63;5239917;28;20292;-63
2023/03/06 01:33:44;;;;;;;25.40;19.87;;;1.90;99.90;;;2.80;89.43;97068.25;5239704;28;20200;-62
2023/03/06 01:36:18;;;;;;;24.77;19.83;;;2.00;99.90;;;2.80;89.91;97065.72;5241494;28;20204;-62
2023/03/06 01:38:52;;;;;;;24.60;18.23;;;2.00;99.90;;;2.82;89.90;97064.22;5234728;28;20338;-62
2023/03/06 01:41:25;;;;;;;25.23;18.70;;;2.00;99.90;;;2.69;89.38;97059.03;5241511;28;20207;-63
2023/03/06 01:43:58;;;;;;;25.83;18.20;;;1.90;99.90;;;2.73;90.36;97065.19;5232715;28;20220;-62
2023/03/06 01:46:40;;;;;;;24.77;17.80;;;1.80;99.90;;;2.66;90.04;97059.69;5239429;28;20205;-63
2023/03/06 01:49:18;;;;;;;22.73;16.80;;;1.80;99.90;;;2.66;89.94;97052.13;5236918;28;20232;-62
2023/03/06 01:51:54;;;;;;;21.90;16.93;;;1.80;99.90;;;2.64;90.95;97061.22;5236077;28;20677;-62
2023/03/06 01:54:32;;;;;;;24.97;17.20;;;1.80;99.90;;;2.69;90.59;97043.91;5247448;28;20196;-62
2023/03/06 01:57:12;;;;;;;21.40;15.83;;;1.80;99.90;;;2.66;90.60;97049.59;5237052;28;20196;-62
2023/03/06 01:59:48;;;;;;;22.93;17.13;;;1.80;99.90;;;2.65;90.78;97046.97;5238140;28;20716;-63
2023/03/06 02:02:22;;;;;;;23.63;17.27;;;1.80;99.90;;;2.66;90.67;97046.19;5236888;28;20204;-62
2023/03/06 02:04:55;;;;;;;24.43;18.17;;;1.90;99.90;;;2.68;91.59;97042.13;5245945;28;20236;-63
2023/03/06 02:07:29;;;;;;;23.93;17.20;;;1.90;99.90;;;2.68;91.52;97043.00;5239119;28;20770;-63
2023/03/06 02:10:05;;;;;;;22.60;17.97;;;1.80;99.90;;;2.73;90.41;97039.97;5233346;28;20207;-62
2023/03/06 02:12:42;;;;;;;22.13;17.33;;;1.90;99.90;;;2.70;90.36;97026.34;5236612;28;20196;-62
2023/03/06 02:15:19;;;;;;;24.63;18.67;;;1.80;99.90;;;2.68;91.56;97032.03;5238353;28;20221;-62
2023/03/06 02:17:53;;;;;;;25.53;18.33;;;1.80;99.90;;;2.67;91.88;97025.25;5237826;28;20306;-63
2023/03/06 02:20:33;;;;;;;24.77;18.10;;;1.80;99.90;;;2.69;90.76;97027.13;5242108;28;20419;-63
2023/03/06 02:23:11;;;;;;;23.20;17.37;;;1.80;99.90;;;2.69;90.43;97026.25;5236456;28;20291;-63
2023/03/06 02:25:48;;;;;;;22.53;17.47;;;1.80;99.90;;;2.63;91.14;97014.06;5234663;28;20235;-62
2023/03/06 02:28:23;;;;;;;22.47;17.50;;;1.80;99.90;;;2.60;91.39;97013.81;5237041;28;20368;-63
2023/03/06 02:30:57;;;;;;;23.97;17.30;;;1.80;99.90;;;2.62;91.47;97021.50;5241443;28;20207;-63
2023/03/06 02:33:30;;;;;;;21.73;17.80;;;1.80;99.90;;;2.61;91.90;97010.53;5239288;28;20215;-62
2023/03/06 02:36:06;;;;;;;22.87;17.47;;;1.80;99.90;;;2.60;92.13;97001.19;5239903;28;20200;-63
2023/03/06 02:38:47;;;;;;;22.27;17.37;;;1.80;99.90;;;2.60;92.00;96996.16;5233817;28;20233;-61
2023/03/06 02:41:21;;;;;;;24.20;18.63;;;1.80;99.90;;;2.62;91.58;96996.28;5242429;28;20668;-62
2023/03/06 02:43:54;;;;;;;22.90;17.20;;;1.80;99.90;;;2.62;91.44;96992.09;5237800;28;20196;-63
2023/03/06 02:46:27;;;;;;;23.20;17.40;;;1.80;99.90;;;2.62;91.98;96992.09;5245547;28;20579;-62
2023/03/06 02:49:00;;;;;;;25.13;19.10;;;1.80;99.90;;;2.62;92.04;96991.25;5247217;28;20578;-63
2023/03/06 02:51:34;;;;;;;22.50;16.63;;;1.80;99.90;;;2.62;92.14;96978.63;5228869;28;20623;-63
2023/03/06 02:54:07;;;;;;;25.47;18.13;;;1.80;99.90;;;2.66;91.10;96975.53;5243414;28;20223;-62
2023/03/06 02:56:41;;;;;;;23.17;17.30;;;1.80;99.90;;;2.65;91.29;96977.19;5244597;28;20200;-63
2023/03/06 02:59:14;;;;;;;23.37;16.77;;;1.80;99.90;;;2.59;92.24;96981.81;5240817;28;20224;-60
2023/03/06 03:01:47;;;;;;;24.03;17.33;;;1.70;99.90;;;2.61;91.82;96982.81;5235089;28;20207;-61
2023/03/06 03:04:20;;;;;;;21.43;17.03;;;1.70;99.90;;;2.59;92.53;96986.84;5239310;28;20700;-61
2023/03/06 03:06:53;;;;;;;26.40;18.37;;;1.70;99.90;;;2.61;91.88;96982.81;5236505;28;20198;-62
2023/03/06 03:09:27;;;;;;;22.97;17.70;;;1.80;99.90;;;2.61;91.67;96966.78;5240816;28;20224;-60
2023/03/06 03:12:01;;;;;;;24.73;18.57;;;1.70;99.90;;;2.56;91.87;96974.00;5235940;28;20201;-62
2023/03/06 03:14:34;;;;;;;24.50;17.60;;;1.70;99.90;;;2.56;92.55;96975.66;5237468;28;20293;-60
2023/03/06 03:17:07;;;;;;;26.70;19.03;;;1.70;99.90;;;2.55;92.64;96977.31;5235447;28;20210;-61
2023/03/06 03:19:40;;;;;;;26.13;18.67;;;1.70;99.90;;;2.52;92.40;96969.53;5243992;28;20283;-62
2023/03/06 03:22:13;;;;;;;22.83;17.63;;;1.70;99.90;;;2.52;92.64;96968.63;5245717;28;20641;-60
2023/03/06 03:24:47;;;;;;;23.37;17.83;;;1.70;99.90;;;2.52;92.97;96964.47;5236056;28;20211;-61
2023/03/06 03:27:21;;;;;;;23.60;18.17;;;1.70;99.90;;;2.57;92.41;96965.66;5235714;28;20222;-62
2023/03/06 03:29:57;;;;;;;23.07;17.93;;;1.70;99.90;;;2.53;92.02;96961.19;5235270;28;20228;-60
2023/03/06 03:32:30;;;;;;;21.77;17.17;;;1.70;99.90;;;2.51;93.11;96967.75;5239095;28;20749;-61
2023/03/06 03:35:04;;;;;;;22.60;17.37;;;1.70;99.90;;;2.51;92.33;96976.97;5243011;28;20197;-62
2023/03/06 03:37:37;;;;;;;26.17;18.37;;;1.60;99.90;;;2.48;92.50;96967.53;5240886;28;20323;-62
2023/03/06 03:40:12;;;;;;;25.10;18.27;;;1.70;99.90;;;2.49;93.36;96961.75;5239250;28;20562;-61
2023/03/06 03:42:46;;;;;;;22.73;17.83;;;1.60;99.90;;;2.51;92.73;96962.69;5236932;28;20204;-61
2023/03/06 03:45:20;;;;;;;25.17;18.17;;;1.60;99.90;;;2.52;92.41;96961.97;5244346;28;20316;-62
2023/03/06 03:47:52;;;;;;;27.67;19.23;;;1.60;99.90;;;2.53;92.92;96953.63;5240330;28;20322;-62
2023/03/06 03:50:26;;;;;;;23.87;18.23;;;1.70;99.90;;;2.53;92.60;96956.13;5241562;28;20296;-63
2023/03/06 03:52:59;;;;;;;21.93;17.80;;;1.60;99.90;;;2.50;92.84;96955.03;5240705;28;20197;-63
2023/03/06 03:55:32;;;;;;;22.90;17.27;;;1.60;99.90;;;2.44;93.06;96950.44;5233897;28;20560;-62
2023/03/06 03:58:06;;;;;;;21.33;18.00;;;1.60;99.90;;;2.42;92.90;96950.31;5229672;28;20219;-61
2023/03/06 04:00:39;;;;;;;24.57;18.83;;;1.60;99.90;;;2.46;93.19;96944.72;5239644;28;20201;-61
2023/03/06 04:03:12;;;;;;;22.10;17.80;;;1.60;99.90;;;2.39;93.09;96941.66;5241133;28;20311;-63
2023/03/06 04:05:45;;;;;;;23.27;17.77;;;1.50;99.90;;;2.36;93.24;96936.38;5240901;28;20658;-61
2023/03/06 04:08:18;;;;;;;23.30;17.97;;;1.50;99.90;;;2.37;93.46;96933.94;5233606;28;20224;-62
2023/03/06 04:10:52;;;;;;;24.63;18.80;;;1.60;99.90;;;2.35;93.80;96934.63;5230300;28;20568;-63
2023/03/06 04:13:27;;;;;;;23.17;17.60;;;1.60;99.90;;;2.37;94.53;96933.94;5243489;28;20226;-63
2023/03/06 04:16:00;;;;;;;21.37;16.97;;;1.60;99.90;;;2.37;93.71;96933.09;5235405;28;20195;-62
2023/03/06 04:18:33;;;;;;;22.70;16.93;;;1.60;99.90;;;2.41;94.60;96935.06;5238317;28;20225;-61
2023/03/06 04:21:06;;;;;;;29.27;20.57;;;1.60;99.90;;;2.41;93.49;96932.56;5237771;28;20736;-61
2023/03/06 04:23:39;;;;;;;36.80;24.87;;;1.60;99.90;;;2.40;93.80;96928.25;5232783;28;20286;-61
2023/03/06 04:26:12;;;;;;;29.77;21.90;;;1.60;99.90;;;2.42;93.69;96924.22;5236580;28;20225;-62
2023/03/06 04:28:47;;;;;;;25.90;18.87;;;1.60;99.90;;;2.42;94.22;96924.22;5241825;28;20620;-61
2023/03/06 04:31:20;;;;;;;23.33;17.70;;;1.60;99.90;;;2.41;94.16;96922.47;5234085;28;20287;-62
2023/03/06 04:33:53;;;;;;;25.83;18.27;;;1.60;99.90;;;2.39;93.56;96926.50;5235426;28;20215;-62
2023/03/06 04:36:29;;;;;;;23.90;17.07;;;1.60;99.90;;;2.36;93.32;96923.78;5241405;28;20196;-62
2023/03/06 04:39:03;;;;;;;24.77;18.10;;;1.50;99.90;;;2.32;93.65;96917.63;5237946;28;20647;-62
2023/03/06 04:41:36;;;;;;;22.00;16.63;;;1.50;99.90;;;2.28;94.30;96912.25;5241643;28;20206;-63
2023/03/06 04:44:11;;;;;;;26.30;18.50;;;1.50;99.90;;;2.30;94.11;96921.69;5240631;28;20691;-63
2023/03/06 04:46:44;;;;;;;23.47;17.43;;;1.50;99.90;;;2.30;93.60;96915.75;5241225;28;20216;-63
2023/03/06 04:49:18;;;;;;;23.03;18.07;;;1.40;99.90;;;2.30;93.69;96908.19;5237465;28;20221;-61
2023/03/06 04:51:51;;;;;;;24.83;17.77;;;1.50;99.90;;;2.29;94.50;96903.91;5230084;28;20292;-62
2023/03/06 04:54:24;;;;;;;25.67;18.37;;;1.50;99.90;;;2.30;94.25;96905.69;5240882;28;20208;-61
2023/03/06 04:56:57;;;;;;;24.93;18.70;;;1.50;99.90;;;2.32;94.96;96909.16;5241023;28;20202;-62
2023/03/06 04:59:32;;;;;;;23.60;17.97;;;1.50;99.90;;;2.25;94.88;96907.84;5233423;28;20201;-62
2023/03/06 05:02:05;;;;;;;28.03;18.13;;;1.40;99.90;;;2.24;94.86;96906.13;5232500;28;20293;-62
2023/03/06 05:04:38;;;;;;;25.83;18.33;;;1.50;99.90;;;2.29;95.50;96904.81;5228959;28;20205;-63
2023/03/06 05:07:11;;;;;;;21.30;17.13;;;1.50;99.90;;;2.31;94.87;96907.44;5232211;28;20231;-62
2023/03/06 05:12:55;;;;;;;26.23;17.93;;;1.50;99.90;;;2.29;94.89;96901.38;5187838;28;20210;-62
2023/03/06 05:15:29;;;;;;;25.80;18.47;;;1.50;99.90;;;2.29;94.83;96908.94;5237491;28;20308;-62
2023/03/06 05:18:03;;;;;;;26.63;17.60;;;1.50;99.90;;;2.24;94.93;96906.13;5237490;28;20492;-61
2023/03/06 05:20:36;;;;;;;23.13;17.40;;;1.40;99.90;;;2.28;94.71;96907.19;5233716;28;20208;-62
2023/03/06 05:23:09;;;;;;;24.67;17.70;;;1.50;99.90;;;2.29;94.71;96898.88;5248536;28;20739;-63
2023/03/06 05:25:42;;;;;;;26.33;18.27;;;1.50;99.90;;;2.30;94.60;96901.50;5237728;28;20342;-62
2023/03/06 05:28:16;;;;;;;23.90;17.47;;;1.50;99.90;;;2.30;94.16;96903.16;5237720;28;20309;-62
2023/03/06 05:30:50;;;;;;;25.10;18.23;;;1.50;99.90;;;2.33;94.53;96900.88;5237484;28;20289;-63
2023/03/06 05:33:23;;;;;;;24.93;18.30;;;1.50;99.90;;;2.33;94.55;96900.88;5235672;28;20299;-61
2023/03/06 05:35:56;;;;;;;24.53;18.10;;;1.50;99.90;;;2.40;93.48;96903.03;5235837;28;20286;-62
2023/03/06 05:38:29;;;;;;;23.67;17.77;;;1.50;99.90;;;2.38;93.92;96899.56;5239583;28;20239;-60
2023/03/06 05:41:02;;;;;;;26.00;18.00;;;1.50;99.90;;;2.38;94.07;96894.50;5238005;28;20286;-62
2023/03/06 05:43:35;;;;;;;27.30;18.67;;;1.50;99.90;;;2.36;94.37;96898.56;5238717;28;20346;-62
2023/03/06 05:46:11;;;;;;;25.90;18.53;;;1.50;99.90;;;2.33;94.19;96895.81;5238607;28;20223;-61
2023/03/06 05:48:44;;;;;;;25.33;18.57;;;1.50;99.90;;;2.32;94.56;96896.56;5241074;28;20647;-61
2023/03/06 05:51:19;;;;;;;32.83;20.33;;;1.50;99.90;;;2.27;94.10;96895.38;5237403;28;20711;-62
2023/03/06 05:53:52;;;;;;;25.87;19.07;;;1.50;99.90;;;2.23;93.85;96894.25;5242822;28;20598;-62
2023/03/06 05:56:25;;;;;;;26.97;18.40;;;1.40;99.90;;;2.23;94.43;96894.25;5237539;28;20201;-62
2023/03/06 05:58:58;;;;;;;26.03;18.47;;;1.50;99.90;;;2.27;94.54;96895.38;5237792;28;20689;-62
2023/03/06 06:01:32;;;;;;;27.37;18.73;;;1.40;99.90;;;2.31;93.59;96892.31;5239035;28;20287;-62
2023/03/06 06:04:05;;;;;;;25.83;18.27;;;1.40;99.90;;;2.31;93.95;96897.34;5245808;28;20293;-63
2023/03/06 06:06:38;;;;;;;26.33;18.73;;;1.50;99.90;;;2.27;94.14;96896.25;5248617;28;20257;-62
2023/03/06 06:09:11;;;;;;;27.67;18.77;;;1.50;99.90;;;2.29;94.12;96894.72;5236928;28;20223;-62
2023/03/06 06:11:45;;;;;;;26.93;18.80;;;1.50;99.90;;;2.30;93.75;96901.50;5238029;28;20303;-61
2023/03/06 06:14:18;;;;;;;26.50;19.10;;;1.50;99.90;;;2.31;93.45;96895.69;5238208;28;20287;-62
2023/03/06 06:16:53;;;;;;;25.40;19.37;;;1.50;99.90;;;2.33;94.12;96905.91;5238510;28;20253;-61
2023/03/06 06:19:29;;;;;;;27.97;18.43;;;1.50;99.90;;;2.38;93.53;96899.56;5235468;28;20230;-61
2023/03/06 06:22:03;;;;;;;26.57;18.43;;;1.50;99.90;;;2.37;93.38;96902.81;5244756;28;20372;-62
2023/03/06 06:24:36;;;;;;;24.67;18.90;;;1.50;99.90;;;2.38;93.84;96902.06;5232622;28;20590;-62
2023/03/06 06:27:09;;;;;;;27.53;19.00;;;1.50;99.90;;;2.38;93.04;96895.38;5230462;28;20223;-62
2023/03/06 06:29:42;;;;;;;25.47;20.17;;;1.50;99.90;;;2.33;93.45;96905.91;5241227;28;20306;-62
2023/03/06 06:32:17;;;;;;;25.97;18.93;;;1.50;99.90;;;2.30;93.60;96906.56;5235083;28;20202;-62
2023/03/06 06:34:50;;;;;;;26.60;18.80;;;1.50;99.90;;;2.32;93.87;96906.66;5232525;28;20203;-62
2023/03/06 06:37:23;;;;;;;22.67;18.40;;;1.50;99.90;;;2.33;93.96;96906.78;5232618;28;20240;-61
2023/03/06 06:39:56;;;;;;;27.00;18.83;;;1.60;99.90;;;2.38;94.04;96902.94;5237796;28;20227;-61
2023/03/06 06:42:29;;;;;;;29.30;20.47;;;1.60;99.90;;;2.41;93.50;96899.78;5240236;28;20195;-62
2023/03/06 06:45:12;;;;;;;29.27;19.87;;;1.60;99.90;;;2.47;93.71;96906.13;5236636;28;20204;-61
2023/03/06 06:47:50;;;;;;;27.33;20.20;;;1.70;99.90;;;2.52;93.52;96903.06;5237769;28;20689;-61
2023/03/06 06:50:23;;;;;;;29.10;20.33;;;1.70;99.90;;;2.53;94.34;96894.75;5236929;28;20210;-62
2023/03/06 06:52:56;;;;;;;24.93;18.70;;;1.80;99.90;;;2.57;94.09;96906.78;5239682;28;20295;-61
2023/03/06 06:55:29;;;;;;;25.53;19.67;;;1.80;99.90;;;2.61;93.26;96889.47;5231672;28;20209;-61
2023/03/06 06:58:02;;;;;;;27.70;19.90;;;1.80;99.90;;;2.71;92.76;96896.03;5237932;28;20223;-61
2023/03/06 07:00:35;;;;;;;22.70;19.13;;;1.90;99.90;;;2.75;92.73;96904.69;5241228;28;20200;-62
2023/03/06 07:03:12;;;;;;;28.27;18.73;;;1.90;99.90;;;2.78;93.53;96903.28;5232257;28;20196;-62
2023/03/06 07:05:45;;;;;;;29.20;20.20;;;1.90;99.90;;;2.78;93.52;96912.50;5236774;28;20207;-64
2023/03/06 07:08:18;;;;;;;27.93;19.07;;;1.90;99.90;;;2.85;93.21;96907.13;5234218;28;20227;-62
2023/03/06 07:10:51;;;;;;;24.30;18.90;;;2.00;99.90;;;2.81;93.11;96922.81;5240620;28;20263;-62
2023/03/06 07:13:24;;;;;;;24.63;18.77;;;1.90;99.90;;;2.82;93.17;96920.38;5239997;28;20668;-62
2023/03/06 07:15:57;;;;;;;26.13;18.50;;;1.90;99.90;;;2.89;91.99;96916.63;5236322;28;20270;-61
2023/03/06 07:18:32;;;;;;;24.63;18.23;;;1.90;99.90;;;2.78;92.86;96913.38;5232193;28;20225;-61
2023/03/06 07:21:06;;;;;;;25.90;18.77;;;1.90;99.90;;;2.81;92.71;96915.25;5231524;28;20208;-61
2023/03/06 07:23:39;;;;;;;25.17;19.20;;;1.90;99.90;;;2.80;93.91;96911.81;5230583;28;20211;-61
2023/03/06 07:26:12;;;;;;;27.90;19.00;;;1.90;99.90;;;2.83;93.04;96911.16;5228043;28;20209;-61
2023/03/06 07:28:48;;;;;;;26.87;18.83;;;2.00;99.90;;;2.85;93.52;96915.56;5236533;28;20719;-62
2023/03/06 07:31:27;;;;;;;26.80;20.17;;;2.00;99.90;;;2.91;92.86;96910.94;5232043;28;20648;-62
2023/03/06 07:34:01;;;;;;;29.53;22.13;;;2.10;99.90;;;3.00;93.01;96910.72;5241427;28;20227;-61
2023/03/06 07:36:39;;;;;;;28.60;20.87;;;2.20;99.90;;;3.16;92.53;96905.97;5236044;28;20607;-62
2023/03/06 07:39:12;;;;;;;27.73;20.83;;;2.30;99.90;;;3.26;91.50;96911.66;5230412;28;20228;-61
2023/03/06 07:41:45;;;;;;;27.03;19.93;;;2.40;99.90;;;3.42;91.17;96919.53;5237921;28;20192;-61
2023/03/06 07:44:18;;;;;;;24.77;19.33;;;2.50;99.90;;;3.47;89.93;96918.19;5237315;28;20210;-61
2023/03/06 07:46:51;;;;;;;26.53;20.27;;;2.50;99.90;;;3.45;89.87;96914.69;5233477;28;20226;-61
2023/03/06 07:49:25;;;;;;;26.70;20.20;;;2.50;99.90;;;3.47;89.50;96927.44;5235854;28;20574;-61
2023/03/06 07:51:58;;;;;;;26.33;20.90;;;2.50;99.90;;;3.48;89.89;96925.00;5235002;28;20293;-62
2023/03/06 07:54:33;;;;;;;25.53;19.83;;;2.60;99.90;;;3.53;90.42;96921.13;5223738;28;20209;-61
2023/03/06 07:57:06;;;;;;;26.07;20.17;;;2.70;99.90;;;3.46;89.11;96929.06;5230072;28;20203;-62
2023/03/06 07:59:39;;;;;;;28.83;21.83;;;2.70;99.90;;;3.55;89.02;96931.38;5234663;28;20200;-61
2023/03/06 08:02:12;;;;;;;30.37;20.77;;;2.70;99.90;;;3.66;88.71;96939.66;5232418;28;20204;-63
2023/03/06 08:04:52;;;;;;;30.97;21.27;;;2.80;99.90;;;3.70;88.50;96939.97;5232182;28;20231;-61
2023/03/06 08:07:25;;;;;;;29.30;21.63;;;2.90;99.90;;;3.80;87.69;96947.41;5233301;28;20231;-63
2023/03/06 08:09:58;;;;;;;29.30;22.13;;;2.90;99.90;;;3.87;86.79;96942.78;5236871;28;20644;-62
2023/03/06 08:12:31;;;;;;;28.10;21.50;;;2.90;99.90;;;3.82;86.60;96942.47;5236957;28;20674;-61
2023/03/06 08:15:06;;;;;;;29.50;21.53;;;2.90;99.90;;;3.83;86.53;96935.00;5234032;28;20640;-61
2023/03/06 08:17:40;;;;;;;28.43;20.73;;;2.90;99.90;;;3.78;87.06;96938.84;5233288;28;20223;-62
2023/03/06 08:20:14;;;;;;;29.33;22.20;;;2.90;99.90;;;3.77;86.53;96939.59;5230819;28;20222;-61
2023/03/06 08:22:47;;;;;;;29.63;21.03;;;2.90;99.90;;;3.79;86.38;96940.59;5242593;28;20742;-62
2023/03/06 08:25:20;;;;;;;31.43;22.13;;;2.90;99.90;;;3.77;86.33;96936.22;5225244;28;20204;-63
2023/03/06 08:27:53;;;;;;;29.90;21.10;;;2.90;99.90;;;3.77;86.25;96941.25;5232047;28;21143;-63
2023/03/06 08:30:26;;;;;;;27.97;20.47;;;2.90;99.90;;;3.80;86.17;96942.34;5238725;28;21862;-61
2023/03/06 08:33:00;;;;;;;26.90;20.13;;;3.00;99.90;;;3.84;85.56;96943.44;5231886;28;20218;-61
2023/03/06 08:35:35;;;;;;;24.30;19.50;;;3.00;99.90;;;3.99;84.65;96936.88;5239238;28;20198;-63
2023/03/06 08:38:08;;;;;;;26.73;19.37;;;3.10;99.90;;;4.11;82.96;96938.47;5237659;28;20236;-61
2023/03/06 08:40:42;;;;;;;25.13;19.63;;;3.20;99.90;;;4.11;82.92;96951.13;5232555;28;20291;-61
2023/03/06 08:43:15;;;;;;;23.87;17.67;;;3.20;99.90;;;4.23;81.19;96950.28;5233829;28;20707;-61
2023/03/06 08:45:52;;;;;;;21.63;17.27;;;3.30;99.90;;;4.22;81.28;96942.59;5238828;28;20289;-62
2023/03/06 08:48:26;;;;;;;23.67;17.77;;;3.20;99.90;;;4.21;81.37;96951.84;5231955;28;20241;-61
2023/03/06 08:51:00;;;;;;;25.70;18.00;;;3.20;99.90;;;4.30;80.92;96941.47;5229932;28;20211;-62
2023/03/06 08:53:33;;;;;;;23.63;17.00;;;3.20;99.90;;;4.39;80.90;96947.13;5232866;28;20234;-61
2023/03/06 08:56:17;;;;;;;21.17;17.73;;;3.30;99.90;;;4.54;80.64;96941.31;5238104;28;20205;-62
2023/03/06 08:58:50;;;;;;;22.10;16.80;;;3.40;99.90;;;4.59;80.17;96943.38;5237465;28;20219;-61
2023/03/06 09:01:26;;;;;;;19.10;15.33;;;3.60;99.90;;;4.77;78.80;96946.19;5242519;28;20305;-62
2023/03/06 09:04:02;;;;;;;20.67;15.83;;;3.70;99.90;;;4.73;79.15;96949.31;5233677;28;20276;-61
2023/03/06 09:06:39;;;;;;;20.77;14.87;;;3.80;99.90;;;5.05;77.41;96941.25;5224180;28;20292;-62
2023/03/06 09:09:13;;;;;;;20.13;14.80;;;3.90;99.90;;;4.97;76.19;96944.94;5226759;28;20251;-62
2023/03/06 09:11:46;;;;;;;19.97;15.60;;;4.00;99.90;;;4.84;77.26;96943.28;5237050;28;20286;-62
2023/03/06 09:14:19;;;;;;;20.03;14.83;;;4.00;99.90;;;5.04;77.22;96944.56;5236067;28;20228;-61
2023/03/06 09:16:52;;;;;;;16.17;13.77;;;4.00;99.90;;;5.23;73.62;96943.16;5227990;28;20295;-62
2023/03/06 09:19:26;;;;;;;19.07;14.83;;;4.20;99.90;;;5.17;73.61;96933.53;5238067;28;20228;-61
2023/03/06 09:22:00;;;;;;;18.30;14.40;;;4.10;99.90;;;5.26;73.54;96938.28;5231738;28;20305;-62
2023/03/06 09:24:33;;;;;;;19.70;14.53;;;4.20;99.90;;;5.26;72.72;96938.28;5230521;28;20210;-62
2023/03/06 09:27:07;;;;;;;18.57;14.13;;;4.30;99.90;;;5.48;72.23;96940.50;5231898;28;20205;-60
2023/03/06 09:29:40;;;;;;;19.70;14.43;;;4.60;99.90;;;5.69;71.74;96941.81;5234073;28;20231;-61
2023/03/06 09:32:13;;;;;;;18.27;15.03;;;4.90;99.90;;;5.71;71.22;96941.91;5231355;28;20196;-59
2023/03/06 09:34:46;;;;;;;17.80;14.37;;;4.90;99.90;;;5.84;69.69;96934.28;5233637;28;20273;-61
2023/03/06 09:37:20;;;;;;;19.07;14.47;;;5.10;99.90;;;5.96;70.45;96932.50;5237652;28;20197;-61
2023/03/06 09:39:53;;;;;;;17.40;14.20;;;5.10;99.90;;;6.12;69.12;96931.72;5235386;28;20280;-60
2023/03/06 09:42:27;;;;;;;16.33;14.00;;;5.30;99.90;;;6.26;68.67;96933.41;5237005;28;20217;-62
2023/03/06 09:45:02;;;;;;;17.63;14.37;;;5.50;99.90;;;6.50;66.91;96921.28;5230428;28;20215;-62
2023/03/06 09:47:45;;;;;;;15.97;13.60;;;5.80;99.90;;;6.53;67.26;96920.56;5234274;28;20225;-61
2023/03/06 09:50:40;;;;;;;17.30;14.40;;;5.80;99.90;;;6.84;64.83;96914.66;5227400;28;20233;-61
2023/03/06 09:53:40;;;;;;;16.17;13.20;;;6.30;99.90;;;6.85;64.17;96922.38;5237930;28;20199;-62
2023/03/06 09:56:17;;;;;;;15.13;12.60;;;6.20;99.90;;;6.69;64.05;96912.16;5233138;28;20196;-61
2023/03/06 09:58:56;;;;;;;15.80;12.90;;;5.80;99.90;;;6.39;64.75;96919.78;5234049;28;20311;-61
2023/03/06 10:01:33;;;;;;;15.50;13.03;;;5.60;99.90;;;6.27;66.19;96924.16;5237922;28;20208;-61
2023/03/06 10:04:17;;;;;;;17.43;13.53;;;5.40;99.90;;;6.15;66.92;96934.44;5234706;28;20292;-62
2023/03/06 10:06:53;;;;;;;15.07;12.37;;;5.20;99.90;;;6.13;68.45;96936.03;5238277;28;20205;-61
2023/03/06 10:09:36;;;;;;;14.43;12.80;;;5.20;99.90;;;5.96;70.00;96927.41;5233377;28;20659;-61
2023/03/06 10:12:22;;;;;;;14.80;12.80;;;5.10;99.90;;;5.92;71.55;96924.56;5231451;28;20196;-61
2023/03/06 10:15:08;;;;;;;13.00;11.60;;;5.20;99.90;;;6.09;70.48;96929.00;5218140;28;20254;-63
2023/03/06 10:17:42;;;;;;;13.17;10.83;;;5.30;99.90;;;6.08;69.75;96927.25;5236775;28;20339;-62
2023/03/06 10:20:22;;;;;;;12.30;10.53;;;5.40;99.90;;;6.06;68.86;96931.34;5236765;28;20226;-61
2023/03/06 10:23:30;;;;;;;11.07;9.87;;;5.30;99.90;;;6.16;69.53;96926.06;5233532;28;20291;-62
2023/03/06 10:26:13;;;;;;;11.77;10.43;;;5.30;99.90;;;6.24;69.93;96924.84;5235870;28;20627;-62
2023/03/06 10:28:56;;;;;;;11.40;10.13;;;5.40;99.90;;;6.53;68.56;96928.19;5233964;28;20232;-63
2023/03/06 10:31:29;;;;;;;12.30;9.97;;;5.70;99.90;;;6.53;68.34;96929.06;5234440;28;20745;-62
2023/03/06 10:34:16;;;;;;;11.70;10.50;;;5.70;99.90;;;6.69;67.38;96924.84;5241301;28;20197;-63
2023/03/06 10:36:49;;;;;;;11.23;10.13;;;5.70;99.90;;;6.56;67.54;96925.81;5242115;28;20215;-62
2023/03/06 10:39:23;;;;;;;11.17;9.70;;;5.60;99.90;;;6.67;66.11;96917.16;5234288;28;20323;-60
2023/03/06 10:41:57;;;;;;;10.53;9.50;;;5.60;99.90;;;6.55;68.09;96924.06;5240809;28;20203;-62
2023/03/06 10:44:30;;;;;;;11.30;10.20;;;5.60;99.90;;;6.38;68.06;96929.81;5240596;28;20913;-62
2023/03/06 10:47:29;;;;;;;11.73;9.57;;;5.50;99.90;;;6.46;68.58;96921.88;5236351;28;20296;-62
2023/03/06 10:50:06;;;;;;;11.97;10.23;;;5.40;99.90;;;6.42;71.07;96929.25;5238368;28;20244;-63
2023/03/06 10:52:40;;;;;;;11.20;9.83;;;5.40;99.90;;;6.58;70.78;96925.91;5237507;28;20245;-64
2023/03/06 10:55:26;;;;;;;10.83;9.73;;;5.40;99.90;;;6.51;69.61;96922.13;5234415;28;20263;-62